Flight Track Log - Related Links

Times and Time Zones

All times are in EDT time to prevent confusion due to time zone crossing. See the N21500 flight status page for this flight to view local times or setup timezone preferences in your user account.

Time Position Orientation Groundspeed Altitude Reporting Facility
EDT Latitude Longitude Course Direction KTS MPH feet Rate Location/Type
Wed 02:19:19 PM 37.4667 -122.4500 50° Northeast 116 133 2,200  Level Northern Cal TRACON
Wed 02:24:20 PM 37.5333 -122.3500 22° Northeast 130 150 5,000 465 Climbing Northern Cal TRACON
Wed 02:25:20 PM 37.5667 -122.3333 22° Northeast 130 150 5,000  Level Northern Cal TRACON
Wed 02:26:20 PM 37.6000 -122.3167 38° Northeast 132 152 5,000 50 Level Northern Cal TRACON
Wed 02:27:20 PM 37.6333 -122.2833 22° Northeast 141 162 5,100  Climbing Northern Cal TRACON
Wed 02:28:20 PM 37.6667 -122.2667 22° Northeast 140 161 5,000 -50 Descending Northern Cal TRACON
Wed 02:29:20 PM 37.7000 -122.2500 38° Northeast 149 171 5,000  Level Northern Cal TRACON
Wed 02:30:20 PM 37.7333 -122.2167 38° Northeast 153 176 5,000  Level Northern Cal TRACON
Wed 02:31:21 PM 37.7667 -122.1833 38° Northeast 138 159 5,000 -50 Level Northern Cal TRACON
Wed 02:32:21 PM 37.8000 -122.1500 22° Northeast 140 161 4,900 -50 Descending Northern Cal TRACON
Wed 02:33:21 PM 37.8333 -122.1333 38° Northeast 141 162 4,900  Level Northern Cal TRACON
Wed 02:34:21 PM 37.8667 -122.1000 44° Northeast 140 161 4,900  Level Northern Cal TRACON
Wed 02:41:32 PM 38.0734 -121.8433 38° Northeast  Level FlightAware Approximate
Wed 02:42:32 PM 38.1051 -121.8116 32° Northeast  Level FlightAware Approximate
Wed 02:43:32 PM 38.1393 -121.7845 41° Northeast  Level FlightAware Approximate
Wed 02:44:32 PM 38.1692 -121.7513 31° Northeast  Level FlightAware Approximate
Wed 02:45:32 PM 38.2039 -121.7250 33° Northeast  Level FlightAware Approximate
Wed 02:46:32 PM 38.2376 -121.6968 30° Northeast  Level FlightAware Approximate
Wed 02:47:32 PM 38.2723 -121.6708 31° Northeast  Level FlightAware Approximate
Wed 02:48:32 PM 38.3071 -121.6447 30° Northeast  Level FlightAware Approximate
Wed 02:49:32 PM 38.3418 -121.6187 30° Northeast  Level FlightAware Approximate
Wed 02:50:32 PM 38.3766 -121.5926 30° Northeast  Level FlightAware Approximate
Wed 02:51:32 PM 38.4114 -121.5665 33° Northeast  Level FlightAware Approximate
Wed 02:52:32 PM 38.4450 -121.5383 27° Northeast  Level FlightAware Approximate
Wed 02:53:32 PM 38.4808 -121.5146 27° Northeast  Level Estimated
Wed 02:54:32 PM 38.5166 -121.4908 207° Southwest  Level Estimated
Wed 02:55:32 PM 38.4808 -121.5145 52° Northeast  Level Estimated
Wed 02:56:32 PM 38.5000 -121.4833 328° Northwest  Level FlightAware Approximate
Wed 02:57:32 PM 38.5341 -121.5109 148° Southeast  Level Estimated
Wed 02:58:32 PM 38.5000 -121.4833 328° Northwest  Level FlightAware Approximate
Wed 02:59:32 PM 38.5341 -121.5109 148° Southeast  Level Estimated
Wed 03:00:32 PM 38.5000 -121.4833 328° Northwest  Level FlightAware Approximate
Wed 03:01:32 PM 38.5341 -121.5109 148° Southeast  Level Estimated
Wed 03:02:32 PM 38.5000 -121.4833 328° Northwest  Level FlightAware Approximate
Wed 03:03:32 PM 38.5341 -121.5109 148° Southeast  Level Estimated
Wed 03:04:32 PM 38.5000 -121.4833 328° Northwest  Level FlightAware Approximate
Wed 03:05:32 PM 38.5341 -121.5109 148° Southeast  Level Estimated
Wed 03:06:32 PM 38.5000 -121.4833 328° Northwest  Level FlightAware Approximate
Wed 03:07:32 PM 38.5341 -121.5109 148° Southeast  Level Estimated
Wed 03:08:32 PM 38.5000 -121.4833 328° Northwest  Level FlightAware Approximate
Wed 03:09:32 PM 38.5341 -121.5109 148° Southeast  Level Estimated
Wed 03:10:32 PM 38.5000 -121.4833 328° Northwest  Level FlightAware Approximate
Wed 03:11:32 PM 38.5341 -121.5109 328° Northwest  Level Estimated

Login

Don't have an account? Register now (free) for customized features, flight alerts, and more!